createdAt,value
2023-01-25T00:01:50.160Z,100043.50
2023-01-25T00:04:18.508Z,100046.59
2023-01-25T00:06:46.924Z,100048.16
2023-01-25T00:09:15.407Z,100049.28
2023-01-25T00:11:45.191Z,100066.97
2023-01-25T00:14:15.246Z,100068.13
2023-01-25T00:16:44.378Z,100069.25
2023-01-25T00:19:13.391Z,100071.94
2023-01-25T00:21:42.107Z,100082.53
2023-01-25T00:24:12.515Z,100081.25
2023-01-25T00:26:40.981Z,100087.06
2023-01-25T00:29:09.346Z,100090.53
2023-01-25T00:31:58.865Z,100090.44
2023-01-25T00:34:39.433Z,100094.69
2023-01-25T00:37:31.106Z,100089.47
2023-01-25T00:39:59.404Z,100101.56
2023-01-25T00:42:27.845Z,100098.31
2023-01-25T00:44:56.132Z,100104.13
2023-01-25T00:47:24.572Z,100111.47
2023-01-25T00:49:52.862Z,100109.03
2023-01-25T00:52:21.897Z,100108.09
2023-01-25T00:54:50.525Z,100115.88
2023-01-25T00:57:18.797Z,100115.72
2023-01-25T00:59:48.439Z,100121.09
2023-01-25T01:02:16.739Z,100114.28
2023-01-25T01:04:45.078Z,100122.06
2023-01-25T01:07:15.452Z,100116.38
2023-01-25T01:09:43.908Z,100114.31
2023-01-25T01:12:12.222Z,100119.75
2023-01-25T01:14:40.827Z,100118.03
2023-01-25T01:17:09.171Z,100132.88
2023-01-25T01:19:37.564Z,100131.16
2023-01-25T01:22:05.883Z,100133.00
2023-01-25T01:24:34.239Z,100136.03
2023-01-25T01:27:02.544Z,100131.09
2023-01-25T01:29:31.006Z,100138.44
2023-01-25T01:31:59.520Z,100133.53
2023-01-25T01:34:27.974Z,100140.44
2023-01-25T01:36:56.359Z,100143.03
2023-01-25T01:39:24.891Z,100142.06
2023-01-25T01:41:53.303Z,100145.00
2023-01-25T01:44:43.108Z,100143.19
2023-01-25T01:47:25.212Z,100149.22
2023-01-25T01:49:59.119Z,100146.31
2023-01-25T01:52:34.267Z,100149.22
2023-01-25T01:55:16.030Z,100146.25
2023-01-25T01:57:53.178Z,100144.09
2023-01-25T02:00:31.782Z,100139.91
2023-01-25T02:03:00.780Z,100150.31
2023-01-25T02:05:32.927Z,100158.88
2023-01-25T02:08:04.982Z,100149.59
2023-01-25T02:10:33.926Z,100156.16
2023-01-25T02:13:02.760Z,100154.72
2023-01-25T02:15:39.145Z,100165.16
2023-01-25T02:18:07.732Z,100163.41
2023-01-25T02:20:43.340Z,100162.41
2023-01-25T02:23:19.452Z,100172.97
2023-01-25T02:25:48.089Z,100165.66
2023-01-25T02:28:16.439Z,100170.69
2023-01-25T02:30:44.819Z,100168.91
2023-01-25T02:33:13.557Z,100174.22
2023-01-25T02:35:54.713Z,100174.44
2023-01-25T02:38:23.607Z,100169.09
2023-01-25T02:41:05.410Z,100168.91
2023-01-25T02:43:36.321Z,100167.13
2023-01-25T02:46:17.041Z,100158.56
2023-01-25T02:48:45.591Z,100161.53
2023-01-25T02:51:14.038Z,100160.56
2023-01-25T02:53:42.709Z,100162.63
2023-01-25T02:56:11.051Z,100157.28
2023-01-25T02:58:39.566Z,100153.50
2023-01-25T03:01:11.812Z,100150.97
2023-01-25T03:03:40.272Z,100149.81
2023-01-25T03:06:09.377Z,100151.91
2023-01-25T03:08:38.385Z,100152.44
2023-01-25T03:11:08.141Z,100141.97
2023-01-25T03:13:37.378Z,100136.28
2023-01-25T03:16:10.927Z,100133.38
2023-01-25T03:18:40.583Z,100131.00
2023-01-25T03:21:15.099Z,100131.63
2023-01-25T03:23:45.019Z,100132.16
2023-01-25T03:26:22.228Z,100125.69
2023-01-25T03:28:50.545Z,100127.44
2023-01-25T03:31:19.221Z,100120.50
2023-01-25T03:33:48.185Z,100121.03
2023-01-25T03:36:16.641Z,100120.31
2023-01-25T03:38:44.993Z,100111.72
2023-01-25T03:41:14.831Z,100115.75
2023-01-25T03:43:43.347Z,100108.25
2023-01-25T03:46:11.710Z,100106.72
2023-01-25T03:48:40.030Z,100100.09
2023-01-25T03:51:08.632Z,100089.59
2023-01-25T03:53:36.999Z,100090.09
2023-01-25T03:56:09.342Z,100078.66
2023-01-25T03:58:39.669Z,100075.56
2023-01-25T04:01:09.655Z,100070.81
2023-01-25T04:03:38.047Z,100075.31
2023-01-25T04:06:07.754Z,100068.22
2023-01-25T04:08:36.131Z,100067.13
2023-01-25T04:11:10.614Z,100055.41
2023-01-25T04:13:40.140Z,100047.50
2023-01-25T04:16:12.886Z,100041.00
2023-01-25T04:18:41.763Z,100034.03
2023-01-25T04:21:10.193Z,100022.72
2023-01-25T04:23:38.556Z,100022.84
2023-01-25T04:26:09.278Z,100011.13
2023-01-25T04:28:37.800Z,100021.63
2023-01-25T04:31:07.195Z,100010.91
2023-01-25T04:33:35.817Z,100007.78
2023-01-25T04:36:04.499Z,100000.06
2023-01-25T04:38:32.830Z,99987.81
2023-01-25T04:41:01.177Z,99982.84
2023-01-25T04:43:29.596Z,99976.63
2023-01-25T04:45:58.555Z,99962.53
2023-01-25T04:48:27.170Z,99959.88
2023-01-25T04:50:55.679Z,99963.56
2023-01-25T04:53:24.337Z,99944.94
2023-01-25T04:55:52.680Z,99939.00
2023-01-25T04:58:21.087Z,99932.78
2023-01-25T05:00:49.609Z,99915.41
2023-01-25T05:03:17.967Z,99920.63
2023-01-25T05:05:49.404Z,99913.16
2023-01-25T05:08:17.820Z,99905.66
2023-01-25T05:10:46.545Z,99901.28
2023-01-25T05:13:15.079Z,99894.53
2023-01-25T05:15:43.417Z,99887.38
2023-01-25T05:18:11.913Z,99885.91
2023-01-25T05:20:40.296Z,99886.34
2023-01-25T05:23:08.624Z,99879.31
2023-01-25T05:25:55.267Z,99861.31
2023-01-25T05:28:23.591Z,99854.28
2023-01-25T05:30:51.954Z,99849.25
2023-01-25T05:33:20.708Z,99846.06
2023-01-25T05:35:49.041Z,99835.00
2023-01-25T05:38:17.353Z,99838.38
2023-01-25T05:40:45.670Z,99821.91
2023-01-25T05:43:13.962Z,99814.59
2023-01-25T05:45:42.310Z,99803.97
2023-01-25T05:48:10.645Z,99801.00
2023-01-25T05:50:38.953Z,99801.84
2023-01-25T05:53:07.252Z,99775.22
2023-01-25T05:55:37.813Z,99772.75
2023-01-25T05:58:06.163Z,99770.03
2023-01-25T06:00:34.466Z,99768.59
2023-01-25T06:03:03.466Z,99752.38
2023-01-25T06:05:31.897Z,99746.09
2023-01-25T06:08:00.623Z,99742.59
2023-01-25T06:10:28.999Z,99735.56
2023-01-25T06:13:01.146Z,99730.81
2023-01-25T06:15:29.490Z,99722.69
2023-01-25T06:17:58.669Z,99715.63
2023-01-25T06:20:27.196Z,99711.31
2023-01-25T06:22:55.515Z,99710.53
2023-01-25T06:25:24.663Z,99699.13
2023-01-25T06:27:53.062Z,99686.97
2023-01-25T06:30:21.535Z,99687.50
2023-01-25T06:32:51.402Z,99676.13
2023-01-25T06:35:19.817Z,99673.13
2023-01-25T06:37:48.445Z,99658.44
2023-01-25T06:40:17.197Z,99656.94
2023-01-25T06:42:46.251Z,99647.06
2023-01-25T06:45:14.677Z,99644.31
2023-01-25T06:47:43.011Z,99638.06
2023-01-25T06:50:11.966Z,99635.03
2023-01-25T06:52:40.510Z,99629.44
2023-01-25T06:55:13.721Z,99617.75
2023-01-25T06:57:42.156Z,99620.03
2023-01-25T07:00:11.098Z,99619.28
2023-01-25T07:02:39.481Z,99608.84
2023-01-25T07:05:08.708Z,99605.28
2023-01-25T07:07:37.286Z,99594.38
2023-01-25T07:10:06.033Z,99593.38
2023-01-25T07:12:34.654Z,99595.19
2023-01-25T07:15:04.455Z,99582.22
2023-01-25T07:17:33.026Z,99580.94
2023-01-25T07:20:01.308Z,99569.75
2023-01-25T07:22:29.622Z,99563.16
2023-01-25T07:24:59.919Z,99568.53
2023-01-25T07:27:28.309Z,99564.75
2023-01-25T07:29:56.600Z,99554.84
2023-01-25T07:32:24.878Z,99543.44
2023-01-25T07:34:53.280Z,99536.31
2023-01-25T07:37:21.635Z,99534.56
2023-01-25T07:39:51.507Z,99533.53
2023-01-25T07:42:20.050Z,99533.81
2023-01-25T07:44:48.739Z,99526.44
2023-01-25T07:47:17.262Z,99524.91
2023-01-25T07:49:45.563Z,99523.91
2023-01-25T07:52:13.855Z,99515.03
2023-01-25T07:54:42.186Z,99515.03
2023-01-25T07:57:10.986Z,99503.53
2023-01-25T07:59:39.307Z,99508.66
2023-01-25T08:02:09.649Z,99503.31
2023-01-25T08:04:37.968Z,99492.38
2023-01-25T08:07:06.319Z,99485.78
2023-01-25T08:09:34.732Z,99486.03
2023-01-25T08:12:03.047Z,99493.69
2023-01-25T08:14:31.380Z,99490.38
2023-01-25T08:16:59.645Z,99480.69
2023-01-25T08:19:28.808Z,99472.56
2023-01-25T08:21:57.171Z,99475.34
2023-01-25T08:24:25.716Z,99472.06
2023-01-25T08:26:54.130Z,99462.13
2023-01-25T08:29:22.483Z,99467.22
2023-01-25T08:31:50.868Z,99470.78
2023-01-25T08:34:19.309Z,99476.69
2023-01-25T08:36:47.604Z,99469.03
2023-01-25T08:39:15.900Z,99467.78
2023-01-25T08:41:44.253Z,99467.00
2023-01-25T08:44:12.788Z,99467.00
2023-01-25T08:46:41.119Z,99467.78
2023-01-25T08:49:11.665Z,99473.38
2023-01-25T08:51:40.010Z,99472.59
2023-01-25T08:54:10.059Z,99466.25
2023-01-25T08:56:40.147Z,99471.56
2023-01-25T08:59:09.427Z,99465.94
2023-01-25T09:01:37.755Z,99465.19
2023-01-25T09:04:06.169Z,99468.22
2023-01-25T09:06:35.080Z,99470.00
2023-01-25T09:09:05.183Z,99466.94
2023-01-25T09:11:37.927Z,99464.91
2023-01-25T09:14:06.699Z,99466.19
2023-01-25T09:16:35.023Z,99461.84
2023-01-25T09:19:06.023Z,99474.81
2023-01-25T09:21:35.231Z,99472.28
2023-01-25T09:24:06.594Z,99470.19
2023-01-25T09:26:37.923Z,99467.41
2023-01-25T09:29:06.422Z,99464.84
2023-01-25T09:31:35.236Z,99465.34
2023-01-25T09:34:03.866Z,99470.41
2023-01-25T09:36:32.169Z,99469.38
2023-01-25T09:39:00.898Z,99470.91
2023-01-25T09:41:47.470Z,99482.34
2023-01-25T09:44:36.671Z,99481.56
2023-01-25T09:47:27.075Z,99482.28
2023-01-25T09:50:22.734Z,99493.22
2023-01-25T09:53:29.111Z,99484.03
2023-01-25T09:56:03.029Z,99488.81
2023-01-25T09:58:39.160Z,99482.44
2023-01-25T10:01:38.185Z,99488.72
2023-01-25T10:04:20.973Z,99498.34
2023-01-25T10:07:01.041Z,99497.81
2023-01-25T10:09:43.945Z,99493.44
2023-01-25T10:12:26.448Z,99499.00
2023-01-25T10:14:55.987Z,99497.41
2023-01-25T10:17:41.774Z,99500.94
2023-01-25T10:20:19.122Z,99508.50
2023-01-25T10:23:26.395Z,99505.66
2023-01-25T10:26:00.102Z,99517.31
2023-01-25T10:28:35.264Z,99516.97
2023-01-25T10:31:28.617Z,99514.13
2023-01-25T10:33:58.796Z,99527.28
2023-01-25T10:36:33.074Z,99526.44
2023-01-25T10:39:03.725Z,99525.56
2023-01-25T10:41:39.754Z,99527.28
2023-01-25T10:44:24.883Z,99527.72
2023-01-25T10:47:08.440Z,99533.72
2023-01-25T10:49:42.376Z,99534.91
2023-01-25T10:52:14.585Z,99540.63
2023-01-25T10:54:43.065Z,99539.81
2023-01-25T10:57:18.482Z,99545.81
2023-01-25T10:59:53.965Z,99539.38
2023-01-25T11:02:42.643Z,99544.59
2023-01-25T11:05:20.053Z,99545.75
2023-01-25T11:07:48.975Z,99559.63
2023-01-25T11:10:37.269Z,99547.31
2023-01-25T11:13:18.141Z,99557.63
2023-01-25T11:16:05.879Z,99552.19
2023-01-25T11:18:39.028Z,99552.28
2023-01-25T11:21:13.629Z,99561.06
2023-01-25T11:23:42.112Z,99568.28
2023-01-25T11:26:20.859Z,99567.16
2023-01-25T11:28:51.956Z,99567.50
2023-01-25T11:31:24.233Z,99576.22
2023-01-25T11:33:52.630Z,99575.84
2023-01-25T11:36:46.563Z,99584.28
2023-01-25T11:39:59.866Z,99587.66
2023-01-25T11:42:59.440Z,99588.97
2023-01-25T11:45:48.808Z,99593.06
2023-01-25T11:48:47.259Z,99600.75
2023-01-25T11:51:30.317Z,99603.59
2023-01-25T11:54:24.679Z,99597.31
2023-01-25T11:57:00.530Z,99600.44
2023-01-25T11:59:43.879Z,99609.16
2023-01-25T12:02:51.314Z,99610.25
2023-01-25T12:05:39.052Z,99607.03
2023-01-25T12:08:25.701Z,99620.06
2023-01-25T12:11:18.180Z,99625.50
2023-01-25T12:14:04.108Z,99628.16
2023-01-25T12:16:56.573Z,99637.13
2023-01-25T12:19:36.676Z,99639.78
2023-01-25T12:22:40.337Z,99645.69
2023-01-25T12:25:34.314Z,99652.84
2023-01-25T12:28:15.031Z,99650.66
2023-01-25T12:31:06.585Z,99652.53
2023-01-25T12:34:03.209Z,99656.25
2023-01-25T12:36:41.746Z,99660.44
2023-01-25T12:39:25.493Z,99661.81
2023-01-25T12:42:16.459Z,99662.44
2023-01-25T12:45:00.666Z,99672.16
2023-01-25T12:47:45.264Z,99669.25
2023-01-25T12:50:34.904Z,99678.22
2023-01-25T12:53:06.512Z,99678.84
2023-01-25T12:55:35.162Z,99684.56
2023-01-25T12:58:26.449Z,99683.16
2023-01-25T13:01:16.524Z,99684.53
2023-01-25T13:04:12.190Z,99688.25
2023-01-25T13:06:59.541Z,99694.41
2023-01-25T13:09:36.965Z,99696.88
2023-01-25T13:12:06.310Z,99699.34
2023-01-25T13:14:42.117Z,99706.16
2023-01-25T13:17:25.128Z,99704.28
2023-01-25T13:19:54.403Z,99708.78
2023-01-25T13:22:44.281Z,99711.69
2023-01-25T13:25:18.716Z,99700.72
2023-01-25T13:27:47.047Z,99707.19
2023-01-25T13:30:32.214Z,99708.13
2023-01-25T13:33:09.563Z,99706.28
2023-01-25T13:35:43.053Z,99713.50
2023-01-25T13:38:13.176Z,99715.22
2023-01-25T13:40:42.070Z,99716.13
2023-01-25T13:43:13.506Z,99719.38
2023-01-25T13:45:43.156Z,99715.50
2023-01-25T13:48:27.243Z,99724.28
2023-01-25T13:51:02.260Z,99713.28
2023-01-25T13:53:34.163Z,99716.97
2023-01-25T13:56:03.658Z,99717.13
2023-01-25T13:58:38.428Z,99721.59
2023-01-25T14:01:19.718Z,99718.19
2023-01-25T14:03:54.036Z,99719.88
2023-01-25T14:06:25.676Z,99715.72
2023-01-25T14:08:56.973Z,99720.94
2023-01-25T14:11:33.461Z,99716.31
2023-01-25T14:14:25.572Z,99719.97
2023-01-25T14:17:18.657Z,99718.91
2023-01-25T14:19:51.324Z,99723.34
2023-01-25T14:22:34.742Z,99729.38
2023-01-25T14:25:11.072Z,99728.72
2023-01-25T14:27:49.680Z,99728.88
2023-01-25T14:30:22.914Z,99729.78
2023-01-25T14:32:53.267Z,99733.47
2023-01-25T14:35:53.761Z,99734.38
2023-01-25T14:38:31.157Z,99727.72
2023-01-25T14:41:05.001Z,99738.19
2023-01-25T14:43:34.117Z,99735.88
2023-01-25T14:46:02.432Z,99736.78
2023-01-25T14:48:44.079Z,99738.91
2023-01-25T14:51:16.961Z,99744.16
2023-01-25T14:53:50.540Z,99739.97
2023-01-25T14:56:46.659Z,99750.75
2023-01-25T14:59:40.776Z,99740.22
2023-01-25T15:02:25.894Z,99751.88
2023-01-25T15:05:15.485Z,99751.56
2023-01-25T15:07:44.322Z,99758.00
2023-01-25T15:10:28.208Z,99758.13
2023-01-25T15:13:13.670Z,99752.72
2023-01-25T15:16:03.759Z,99751.63
2023-01-25T15:18:52.681Z,99754.06
2023-01-25T15:21:32.719Z,99750.53
2023-01-25T15:24:07.314Z,99750.97
2023-01-25T15:26:36.919Z,99749.88
2023-01-25T15:29:17.761Z,99753.84
2023-01-25T15:31:46.044Z,99757.84
2023-01-25T15:34:27.700Z,99754.75
2023-01-25T15:36:56.229Z,99760.75
2023-01-25T15:39:24.517Z,99756.88
2023-01-25T15:41:52.820Z,99762.09
2023-01-25T15:44:21.416Z,99761.78
2023-01-25T15:46:52.520Z,99763.78
2023-01-25T15:49:27.920Z,99762.22
2023-01-25T15:51:57.168Z,99765.00
2023-01-25T15:54:25.555Z,99769.44
2023-01-25T15:56:57.906Z,99765.91
2023-01-25T15:59:27.851Z,99770.66
2023-01-25T16:01:56.236Z,99773.13
2023-01-25T16:04:26.119Z,99770.78
2023-01-25T16:06:55.935Z,99769.25
2023-01-25T16:09:27.765Z,99776.47
2023-01-25T16:11:58.267Z,99772.25
2023-01-25T16:14:30.011Z,99777.44
2023-01-25T16:17:04.852Z,99776.03
2023-01-25T16:19:34.454Z,99772.94
2023-01-25T16:22:02.818Z,99769.06
2023-01-25T16:24:31.122Z,99767.19
2023-01-25T16:27:01.812Z,99768.88
2023-01-25T16:29:30.609Z,99761.78
2023-01-25T16:31:59.206Z,99764.22
2023-01-25T16:34:27.601Z,99761.91
2023-01-25T16:36:55.957Z,99754.81
2023-01-25T16:39:26.279Z,99756.50
2023-01-25T16:41:55.196Z,99756.16
2023-01-25T16:44:23.558Z,99749.50
2023-01-25T16:46:52.092Z,99753.16
2023-01-25T16:49:31.363Z,99750.84
2023-01-25T16:52:01.086Z,99750.53
2023-01-25T16:54:29.769Z,99752.97
2023-01-25T16:56:59.012Z,99738.81
2023-01-25T16:59:28.635Z,99741.69
2023-01-25T17:01:57.013Z,99746.91
2023-01-25T17:04:25.297Z,99744.59
2023-01-25T17:06:54.077Z,99751.34
2023-01-25T17:09:24.913Z,99743.47
2023-01-25T17:11:54.900Z,99746.69
2023-01-25T17:14:24.160Z,99742.81
2023-01-25T17:16:54.099Z,99741.25
2023-01-25T17:19:22.590Z,99736.94
2023-01-25T17:21:51.004Z,99737.72
2023-01-25T17:24:22.391Z,99740.91
2023-01-25T17:26:51.821Z,99740.16
2023-01-25T17:29:20.190Z,99731.50
2023-01-25T17:31:48.772Z,99724.09
2023-01-25T17:34:19.605Z,99729.28
2023-01-25T17:36:47.945Z,99725.41
2023-01-25T17:39:18.020Z,99718.78
2023-01-25T17:41:48.365Z,99720.47
2023-01-25T17:44:24.037Z,99716.72
2023-01-25T17:46:52.902Z,99723.78
2023-01-25T17:49:23.359Z,99713.50
2023-01-25T17:51:51.841Z,99719.03
2023-01-25T17:54:20.671Z,99712.28
2023-01-25T17:56:49.057Z,99715.03
2023-01-25T17:59:17.442Z,99707.97
2023-01-25T18:01:45.820Z,99713.50
2023-01-25T18:04:14.224Z,99700.56
2023-01-25T18:06:42.580Z,99699.78
2023-01-25T18:09:10.986Z,99691.91
2023-01-25T18:11:41.826Z,99689.13
2023-01-25T18:14:13.637Z,99684.50
2023-01-25T18:16:42.522Z,99680.19
2023-01-25T18:19:12.496Z,99690.47
2023-01-25T18:21:43.268Z,99679.84
2023-01-25T18:24:35.637Z,99680.31
2023-01-25T18:27:12.299Z,99684.72
2023-01-25T18:29:41.472Z,99678.09
2023-01-25T18:32:09.775Z,99675.78
2023-01-25T18:34:38.092Z,99674.69
2023-01-25T18:37:18.666Z,99678.34
2023-01-25T18:39:48.291Z,99674.03
2023-01-25T18:42:17.125Z,99672.91
2023-01-25T18:44:49.123Z,99671.38
2023-01-25T18:47:21.917Z,99671.03
2023-01-25T18:49:51.850Z,99671.91
2023-01-25T18:52:22.186Z,99666.81
2023-01-25T18:54:50.757Z,99662.19
2023-01-25T18:57:19.241Z,99661.84
2023-01-25T18:59:47.661Z,99657.97
2023-01-25T19:02:18.305Z,99652.91
2023-01-25T19:04:46.755Z,99654.13
2023-01-25T19:07:15.117Z,99652.56
2023-01-25T19:09:46.207Z,99650.25
2023-01-25T19:12:14.593Z,99651.47
2023-01-25T19:14:42.966Z,99645.16
2023-01-25T19:17:11.574Z,99638.53
2023-01-25T19:19:39.955Z,99641.75
2023-01-25T19:22:08.273Z,99650.47
2023-01-25T19:24:36.884Z,99645.41
2023-01-25T19:27:05.356Z,99640.31
2023-01-25T19:29:33.877Z,99641.94
2023-01-25T19:32:02.172Z,99636.09
2023-01-25T19:34:30.466Z,99632.22
2023-01-25T19:36:59.165Z,99625.59
2023-01-25T19:39:27.545Z,99626.81
2023-01-25T19:41:55.963Z,99627.25
2023-01-25T19:44:25.974Z,99620.94
2023-01-25T19:46:54.349Z,99620.63
2023-01-25T19:49:23.271Z,99616.75
2023-01-25T19:51:53.903Z,99625.47
2023-01-25T19:54:22.627Z,99617.63
2023-01-25T19:56:51.475Z,99618.41
2023-01-25T19:59:26.321Z,99614.88
2023-01-25T20:01:54.925Z,99619.63
2023-01-25T20:04:25.508Z,99614.53
2023-01-25T20:06:54.119Z,99609.03
2023-01-25T20:09:28.612Z,99611.44
2023-01-25T20:11:58.649Z,99604.38
2023-01-25T20:14:27.005Z,99601.63
2023-01-25T20:16:55.444Z,99606.81
2023-01-25T20:19:23.797Z,99601.69
2023-01-25T20:21:52.208Z,99606.44
2023-01-25T20:24:20.681Z,99610.44
2023-01-25T20:26:49.953Z,99606.53
2023-01-25T20:29:18.261Z,99610.84
2023-01-25T20:31:47.458Z,99606.53
2023-01-25T20:34:18.729Z,99604.22
2023-01-25T20:36:47.570Z,99607.41
2023-01-25T20:39:18.675Z,99608.63
2023-01-25T20:41:47.611Z,99599.25
2023-01-25T20:44:18.872Z,99599.25
2023-01-25T20:46:47.581Z,99593.72
2023-01-25T20:49:18.890Z,99603.22
2023-01-25T20:51:48.523Z,99594.16
2023-01-25T20:54:19.043Z,99600.47
2023-01-25T20:56:51.263Z,99594.16
2023-01-25T20:59:20.153Z,99593.81
2023-01-25T21:01:48.647Z,99591.06
2023-01-25T21:04:17.415Z,99591.06
2023-01-25T21:06:45.717Z,99587.97
2023-01-25T21:09:14.407Z,99585.66
2023-01-25T21:11:43.178Z,99586.88
2023-01-25T21:14:11.722Z,99593.59
2023-01-25T21:16:40.072Z,99593.28
2023-01-25T21:19:08.879Z,99591.28
2023-01-25T21:21:39.153Z,99594.03
2023-01-25T21:24:07.865Z,99590.50
2023-01-25T21:26:38.025Z,99590.50
2023-01-25T21:29:07.695Z,99598.03
2023-01-25T21:31:38.862Z,99598.03
2023-01-25T21:34:07.725Z,99603.22
2023-01-25T21:36:36.092Z,99602.84
2023-01-25T21:39:04.597Z,99597.00
2023-01-25T21:41:36.467Z,99605.72
2023-01-25T21:44:23.725Z,99599.09
2023-01-25T21:47:19.746Z,99595.13
2023-01-25T21:49:59.780Z,99606.94
2023-01-25T21:52:28.062Z,99608.91
2023-01-25T21:54:56.396Z,99610.13
2023-01-25T21:57:24.702Z,99612.56
2023-01-25T21:59:54.415Z,99613.78
2023-01-25T22:02:23.554Z,99609.47
2023-01-25T22:04:51.962Z,99616.97
2023-01-25T22:07:20.616Z,99619.28
2023-01-25T22:09:50.357Z,99617.31
2023-01-25T22:12:18.821Z,99627.91
2023-01-25T22:14:47.267Z,99629.91
2023-01-25T22:17:15.560Z,99630.22
2023-01-25T22:19:43.925Z,99625.91
2023-01-25T22:22:12.210Z,99620.41
2023-01-25T22:24:40.561Z,99630.22
2023-01-25T22:27:38.476Z,99634.97
2023-01-25T22:30:07.973Z,99639.28
2023-01-25T22:32:36.392Z,99635.75
2023-01-25T22:35:04.832Z,99646.03
2023-01-25T22:37:36.660Z,99640.50
2023-01-25T22:40:06.351Z,99642.16
2023-01-25T22:42:35.981Z,99653.63
2023-01-25T22:45:04.300Z,99647.78
2023-01-25T22:47:32.585Z,99650.19
2023-01-25T22:50:00.946Z,99650.63
2023-01-25T22:52:29.243Z,99649.09
2023-01-25T22:54:57.551Z,99656.25
2023-01-25T22:57:25.895Z,99656.25
2023-01-25T22:59:54.239Z,99660.66
2023-01-25T23:02:22.546Z,99660.34
2023-01-25T23:04:50.840Z,99660.78
2023-01-25T23:07:19.784Z,99658.84
2023-01-25T23:09:52.466Z,99669.13
2023-01-25T23:12:21.490Z,99662.50
2023-01-25T23:14:52.361Z,99677.50
2023-01-25T23:17:43.451Z,99674.41
2023-01-25T23:20:13.743Z,99676.81
2023-01-25T23:22:42.562Z,99679.25
2023-01-25T23:25:12.777Z,99686.41
2023-01-25T23:27:41.553Z,99679.00
2023-01-25T23:30:10.985Z,99688.94
2023-01-25T23:32:39.533Z,99690.13
2023-01-25T23:35:08.413Z,99698.41
2023-01-25T23:37:36.701Z,99692.56
2023-01-25T23:40:06.222Z,99701.16
2023-01-25T23:42:34.505Z,99702.38
2023-01-25T23:45:02.901Z,99701.59
2023-01-25T23:47:31.297Z,99710.22
2023-01-25T23:49:59.567Z,99707.47
2023-01-25T23:52:28.440Z,99712.97
2023-01-25T23:54:56.706Z,99722.81
2023-01-25T23:57:25.245Z,99729.09
2023-01-25T23:59:53.643Z,99725.56
